Time;durP1;ratioP1;P1;durP2;ratioP2;P2;SDS_P1;SDS_P2;PMS_P1;PMS_P2;Temp;Humidity;BMP_temperature;BMP_pressure;BME280_temperature;BME280_humidity;BME280_pressure;Samples;Min_cycle;Max_cycle;Signal;HPM_P1;HPM_P2
2022/11/12 00:00:32;;;;;;;8.43;3.38;;;;;;;12.10;83.63;101945.91;2040916;29;20039;-72
2022/11/12 00:01:56;;;;;;;7.35;3.00;;;;;;;12.11;83.96;101945.66;2040608;29;20027;-71
2022/11/12 00:03:21;;;;;;;5.78;2.72;;;;;;;12.15;84.00;101945.97;2041223;29;20047;-70
2022/11/12 00:04:44;;;;;;;7.68;3.00;;;;;;;12.16;83.93;101948.38;2033504;29;20074;-71
2022/11/12 00:06:05;;;;;;;6.43;3.25;;;;;;;12.15;83.74;101960.25;2033345;29;20039;-71
2022/11/12 00:07:28;;;;;;;5.47;3.13;;;;;;;12.11;83.99;101945.66;2037932;29;20067;-70
2022/11/12 00:08:52;;;;;;;7.55;2.67;;;;;;;12.12;84.06;101941.88;2033942;29;20396;-71
2022/11/12 00:10:13;;;;;;;7.93;3.35;;;;;;;12.12;84.24;101946.47;2033303;29;20040;-73
2022/11/12 00:11:34;;;;;;;7.05;2.92;;;;;;;12.15;83.91;101951.34;2033516;29;20041;-71
2022/11/12 00:12:54;;;;;;;5.97;3.40;;;;;;;12.10;84.32;101949.41;2025434;29;20036;-71
2022/11/12 00:14:17;;;;;;;6.93;3.13;;;;;;;12.04;84.35;101953.94;2030168;29;20035;-71
2022/11/12 00:15:40;;;;;;;7.55;3.20;;;;;;;12.05;84.22;101957.47;2033379;29;20043;-71
2022/11/12 00:17:04;;;;;;;8.20;3.53;;;;;;;12.08;84.36;101964.22;2032853;29;20093;-71
2022/11/12 00:18:25;;;;;;;7.93;3.55;;;;;;;12.03;84.29;101963.09;2032459;29;20411;-71
2022/11/12 00:19:46;;;;;;;7.53;2.83;;;;;;;12.06;84.46;101950.97;2032593;29;20530;-71
2022/11/12 00:21:10;;;;;;;3.90;2.67;;;;;;;12.09;84.46;101961.25;2032865;29;20448;-72
2022/11/12 00:22:33;;;;;;;5.82;2.75;;;;;;;12.03;84.53;101963.09;2032172;29;20412;-72
2022/11/12 00:23:54;;;;;;;7.95;3.30;;;;;;;12.03;84.54;101963.09;2019456;29;20044;-72
2022/11/12 00:25:15;;;;;;;7.30;3.30;;;;;;;11.98;84.55;101960.34;2024149;29;20100;-71
2022/11/12 00:26:37;;;;;;;5.63;2.97;;;;;;;11.99;84.79;101947.69;2024396;29;20429;-71
2022/11/12 00:28:05;;;;;;;7.03;3.33;;;;;;;11.93;84.78;101964.88;2030412;29;20055;-71
2022/11/12 00:29:27;;;;;;;7.38;3.05;;;;;;;11.92;84.84;101957.88;2024422;29;20048;-72
2022/11/12 00:30:48;;;;;;;6.55;2.83;;;;;;;11.92;84.81;101960.56;2029411;29;20040;-71
2022/11/12 00:32:09;;;;;;;6.85;3.20;;;;;;;11.94;84.78;101959.22;2018929;29;20041;-71
2022/11/12 00:33:30;;;;;;;8.68;3.83;;;;;;;11.91;84.92;101959.72;2023995;29;20036;-71
2022/11/12 00:34:51;;;;;;;7.00;3.60;;;;;;;11.92;84.98;101960.56;2034631;29;20495;-71
2022/11/12 00:36:14;;;;;;;6.13;3.10;;;;;;;11.87;84.65;101964.00;2037720;29;20056;-71
2022/11/12 00:37:41;;;;;;;7.90;3.20;;;;;;;11.91;85.06;101970.50;2032223;29;20040;-71
2022/11/12 00:39:03;;;;;;;7.10;3.30;;;;;;;11.93;85.24;101972.97;2027528;29;20032;-71
2022/11/12 00:40:26;;;;;;;6.82;3.33;;;;;;;11.92;85.15;101971.34;2021575;29;20041;-71
2022/11/12 00:41:49;;;;;;;7.88;3.53;;;;;;;11.96;85.05;101969.75;2024599;29;20047;-71
2022/11/12 00:43:10;;;;;;;5.97;2.70;;;;;;;11.96;84.92;101964.38;2032959;29;20050;-71
2022/11/12 00:44:32;;;;;;;6.05;3.38;;;;;;;11.96;84.82;101967.06;2032660;29;20051;-71
2022/11/12 00:45:56;;;;;;;10.35;3.35;;;;;;;11.96;84.71;101954.41;2033275;29;20044;-71
2022/11/12 00:47:16;;;;;;;10.02;3.65;;;;;;;11.98;84.70;101962.22;2033736;29;20036;-71
2022/11/12 00:48:38;;;;;;;17.05;4.50;;;;;;;11.95;84.76;101963.56;2033283;29;20032;-71
2022/11/12 00:50:00;;;;;;;6.25;3.15;;;;;;;11.98;84.81;101964.91;2040072;29;20419;-71
2022/11/12 00:51:21;;;;;;;9.07;3.85;;;;;;;12.00;84.63;101971.69;2031724;29;20055;-71
2022/11/12 00:52:42;;;;;;;8.90;3.75;;;;;;;11.97;84.58;101963.28;2029388;29;20453;-71
2022/11/12 00:54:03;;;;;;;11.25;3.70;;;;;;;11.95;84.34;101966.25;2039283;29;20514;-71
2022/11/12 00:55:24;;;;;;;7.13;4.13;;;;;;;12.01;84.63;101967.09;2039600;29;20048;-71
2022/11/12 00:56:47;;;;;;;6.60;4.15;;;;;;;12.05;84.52;101966.34;2029224;29;20040;-71
2022/11/12 00:58:08;;;;;;;5.65;3.25;;;;;;;12.07;84.29;101963.38;2037574;29;20048;-71
2022/11/12 00:59:32;;;;;;;10.43;3.13;;;;;;;12.09;84.21;101968.53;2039952;29;20039;-71
2022/11/12 01:00:52;;;;;;;8.20;3.55;;;;;;;12.07;83.87;101971.47;2032016;29;20040;-71
2022/11/12 01:02:13;;;;;;;6.38;3.20;;;;;;;12.07;83.92;101968.78;2036694;29;20040;-71
2022/11/12 01:03:38;;;;;;;9.10;3.30;;;;;;;12.07;83.76;101976.88;2026808;29;20067;-71
2022/11/12 01:05:02;;;;;;;7.97;3.72;;;;;;;12.02;83.68;101971.44;2037393;29;20036;-71
2022/11/12 01:06:23;;;;;;;6.10;3.75;;;;;;;12.02;83.74;101971.44;2034851;29;20498;-71
2022/11/12 01:07:47;;;;;;;9.88;3.78;;;;;;;12.05;83.85;101970.94;2040260;29;20055;-70
2022/11/12 01:09:08;;;;;;;10.75;3.40;;;;;;;12.03;83.81;101979.25;2039520;29;20032;-70
2022/11/12 01:10:28;;;;;;;8.82;3.60;;;;;;;12.00;83.76;101976.25;2039716;29;20428;-70
2022/11/12 01:11:49;;;;;;;8.32;3.92;;;;;;;11.96;83.75;101985.94;2039564;29;20163;-70
2022/11/12 01:13:10;;;;;;;6.95;3.25;;;;;;;11.88;83.69;101978.28;2040074;29;20047;-71
2022/11/12 01:14:31;;;;;;;10.07;3.83;;;;;;;11.89;83.91;101975.34;2031970;29;20056;-71
2022/11/12 01:15:55;;;;;;;6.63;3.53;;;;;;;11.90;83.97;101985.06;2032466;29;20055;-71
2022/11/12 01:17:16;;;;;;;9.77;4.55;;;;;;;11.93;83.95;101989.94;2038222;29;20044;-71
2022/11/12 01:18:39;;;;;;;8.23;4.00;;;;;;;11.95;83.85;101984.31;2040787;29;20044;-71
2022/11/12 01:20:03;;;;;;;6.85;3.83;;;;;;;11.93;83.66;101981.03;2040858;29;20035;-70
2022/11/12 01:21:26;;;;;;;8.38;3.78;;;;;;;11.88;83.60;101991.75;2041025;29;20040;-70
2022/11/12 01:22:55;;;;;;;8.23;4.00;;;;;;;11.85;83.60;101992.25;2040888;29;20034;-70
2022/11/12 01:24:15;;;;;;;7.25;3.72;;;;;;;11.83;83.74;102006.78;2039836;29;20381;-70
2022/11/12 01:25:38;;;;;;;9.20;3.92;;;;;;;11.85;83.62;101989.56;2043348;29;20420;-70
2022/11/12 01:27:01;;;;;;;7.57;4.03;;;;;;;11.79;83.74;101992.19;2040756;29;20055;-70
2022/11/12 01:28:21;;;;;;;7.78;3.47;;;;;;;11.80;83.64;101999.19;2040003;29;20051;-70
2022/11/12 01:29:44;;;;;;;7.32;3.70;;;;;;;11.81;83.77;102003.50;2042462;29;20492;-70
2022/11/12 01:31:22;;;;;;;8.15;4.05;;;;;;;11.86;83.77;101999.28;2037118;29;20059;-70
2022/11/12 01:32:43;;;;;;;7.57;3.92;;;;;;;11.81;83.63;102003.50;2040228;29;20059;-70
2022/11/12 01:34:10;;;;;;;9.82;3.58;;;;;;;11.83;83.83;101996.00;2041446;29;20059;-70
2022/11/12 01:35:31;;;;;;;7.90;3.90;;;;;;;11.87;83.41;102000.91;2041229;29;20040;-70
2022/11/12 01:36:55;;;;;;;9.23;4.10;;;;;;;11.89;83.75;101998.78;2041752;29;20074;-70
2022/11/12 01:38:16;;;;;;;13.90;4.00;;;;;;;11.88;83.64;102006.03;2041353;29;20043;-70
2022/11/12 01:39:40;;;;;;;6.75;3.17;;;;;;;11.90;83.65;102000.41;2041510;29;20052;-71
2022/11/12 01:41:01;;;;;;;7.38;3.50;;;;;;;11.87;83.37;102011.69;2041063;29;20051;-71
2022/11/12 01:42:24;;;;;;;8.48;4.07;;;;;;;11.86;83.64;102004.69;2041231;29;20487;-71
2022/11/12 01:43:45;;;;;;;7.95;3.97;;;;;;;11.91;83.55;102002.03;2027831;29;20677;-71
2022/11/12 01:45:16;;;;;;;6.65;3.70;;;;;;;11.94;83.40;102006.91;2031462;29;20040;-72
2022/11/12 01:47:16;;;;;;;7.47;3.83;;;;;;;11.91;83.33;102008.22;2041036;29;20044;-70
2022/11/12 01:48:51;;;;;;;8.93;3.95;;;;;;;11.90;83.43;102003.09;2042467;29;20062;-70
2022/11/12 01:50:22;;;;;;;6.72;3.90;;;;;;;11.90;83.37;102014.69;2042512;29;20059;-70
2022/11/12 01:51:47;;;;;;;8.73;3.60;;;;;;;11.91;83.58;102002.84;2042974;29;20032;-70
2022/11/12 01:53:10;;;;;;;8.65;3.65;;;;;;;11.91;83.36;102007.41;2042279;29;20043;-70
2022/11/12 01:54:32;;;;;;;6.97;3.90;;;;;;;11.91;83.31;102007.41;2041501;29;20058;-70
2022/11/12 01:56:00;;;;;;;8.75;4.25;;;;;;;11.90;83.28;102006.63;2042143;29;20044;-70
2022/11/12 01:57:27;;;;;;;7.05;3.83;;;;;;;11.86;83.19;102010.06;2042296;29;20054;-70
2022/11/12 01:58:55;;;;;;;7.90;3.67;;;;;;;11.89;83.26;102009.56;2042590;29;20043;-70
2022/11/12 02:00:18;;;;;;;7.45;3.60;;;;;;;11.85;83.28;102003.84;2042728;29;20043;-70
2022/11/12 02:01:41;;;;;;;8.88;3.67;;;;;;;11.84;83.20;102007.59;2041169;29;20056;-70
2022/11/12 02:03:10;;;;;;;8.88;3.67;;;;;;;11.82;83.48;101999.75;2043657;29;20040;-70
2022/11/12 02:04:32;;;;;;;9.60;3.83;;;;;;;11.81;83.57;102005.38;2033056;29;20063;-69
2022/11/12 02:06:01;;;;;;;8.57;4.07;;;;;;;11.77;83.53;102009.66;2038323;29;20294;-69
2022/11/12 02:07:24;;;;;;;5.88;3.47;;;;;;;11.77;83.57;102007.78;2041317;29;20048;-70
2022/11/12 02:08:49;;;;;;;9.30;3.95;;;;;;;11.78;83.64;102014.78;2040254;29;20047;-69
2022/11/12 02:10:13;;;;;;;8.27;4.35;;;;;;;11.78;83.63;102013.97;2040722;29;20055;-69
2022/11/12 02:11:36;;;;;;;10.27;4.20;;;;;;;11.85;83.79;102011.13;2038656;29;20040;-69
2022/11/12 02:14:40;;;;;;;13.07;3.70;;;;;;;11.79;83.63;102012.91;2037801;29;20047;-69
2022/11/12 02:16:03;;;;;;;9.40;3.55;;;;;;;11.83;83.75;102012.16;2041204;29;20039;-70
2022/11/12 02:17:24;;;;;;;9.60;3.97;;;;;;;11.82;83.59;102013.25;2040977;29;20055;-71
2022/11/12 02:18:45;;;;;;;7.90;3.72;;;;;;;11.86;83.57;102005.50;2035513;29;20040;-69
2022/11/12 02:20:12;;;;;;;8.05;3.88;;;;;;;11.90;83.56;102003.09;2041057;29;20050;-70
2022/11/12 02:21:38;;;;;;;8.65;4.32;;;;;;;11.94;83.49;102002.34;2041006;29;20082;-70
2022/11/12 02:22:59;;;;;;;12.95;3.97;;;;;;;11.89;83.39;102010.38;2040975;29;20546;-71
2022/11/12 02:24:19;;;;;;;13.18;4.15;;;;;;;11.88;83.61;102003.34;2039991;29;20035;-72
2022/11/12 02:25:43;;;;;;;8.68;3.97;;;;;;;11.89;83.32;102007.69;2041136;29;20679;-72
2022/11/12 02:27:06;;;;;;;10.98;3.78;;;;;;;11.89;83.26;102005.00;2042155;29;20051;-72
2022/11/12 02:28:29;;;;;;;12.95;4.15;;;;;;;11.90;83.54;102014.69;2042047;29;20491;-72
2022/11/12 02:29:51;;;;;;;9.90;4.20;;;;;;;11.89;83.56;102021.16;2041834;29;20048;-72
2022/11/12 02:31:14;;;;;;;7.88;3.80;;;;;;;11.88;83.46;102013.31;2041955;29;20055;-71
2022/11/12 02:32:38;;;;;;;11.52;4.30;;;;;;;11.91;83.56;102012.81;2041290;29;20043;-71
2022/11/12 02:34:01;;;;;;;10.80;4.40;;;;;;;11.91;83.44;102018.19;2041425;29;20036;-71
2022/11/12 02:35:28;;;;;;;7.95;4.15;;;;;;;11.89;83.57;102020.34;2041552;29;20062;-71
2022/11/12 02:36:52;;;;;;;14.00;4.10;;;;;;;11.87;83.14;102017.09;2040964;29;20031;-71
2022/11/12 02:38:14;;;;;;;10.80;4.35;;;;;;;11.89;83.53;102012.28;2035786;29;20039;-71
2022/11/12 02:39:37;;;;;;;9.32;3.70;;;;;;;11.88;83.67;102018.69;2040251;29;20031;-71
2022/11/12 02:41:01;;;;;;;6.55;3.70;;;;;;;11.85;83.75;102019.22;2040890;29;20043;-71
2022/11/12 02:42:27;;;;;;;15.23;4.05;;;;;;;11.82;83.56;102010.53;2043636;29;20039;-71
2022/11/12 02:43:56;;;;;;;9.07;4.25;;;;;;;11.80;83.61;102012.66;2042789;29;20405;-72
2022/11/12 02:45:20;;;;;;;11.90;3.43;;;;;;;11.79;83.81;102004.81;2041569;29;20047;-72
2022/11/12 02:46:45;;;;;;;8.85;3.70;;;;;;;11.78;83.77;102004.00;2041298;29;20295;-71
2022/11/12 02:48:06;;;;;;;8.07;3.75;;;;;;;11.81;83.91;102008.91;2041521;29;20336;-71
2022/11/12 02:49:29;;;;;;;10.45;3.78;;;;;;;11.86;83.81;102020.84;2040845;29;20043;-71
2022/11/12 02:50:53;;;;;;;9.10;3.70;;;;;;;11.89;83.80;102009.56;2040549;29;20039;-70
2022/11/12 02:52:19;;;;;;;6.18;3.03;;;;;;;11.93;83.80;102013.38;2040743;29;20043;-71
2022/11/12 02:53:40;;;;;;;10.30;3.63;;;;;;;11.90;83.55;102019.28;2041149;29;20052;-71
2022/11/12 02:55:05;;;;;;;9.07;3.58;;;;;;;11.89;83.40;102014.97;2039386;29;20700;-71
2022/11/12 02:56:27;;;;;;;5.82;3.22;;;;;;;11.91;83.66;102015.50;2032555;29;20036;-71
2022/11/12 02:57:47;;;;;;;8.93;3.58;;;;;;;11.94;83.61;102028.47;2037820;29;20043;-72
2022/11/12 02:59:08;;;;;;;10.75;4.15;;;;;;;11.95;83.46;102024.75;2035287;29;20059;-72
2022/11/12 03:00:34;;;;;;;7.88;3.20;;;;;;;11.98;83.66;102022.34;2031144;29;20048;-71
2022/11/12 03:01:55;;;;;;;6.70;3.45;;;;;;;12.01;83.53;102015.63;2039795;29;20031;-71
2022/11/12 03:03:16;;;;;;;9.98;4.10;;;;;;;12.00;83.44;102016.69;2041569;29;20051;-72
2022/11/12 03:04:40;;;;;;;6.72;3.40;;;;;;;11.97;83.12;102022.59;2041857;29;20044;-72
2022/11/12 03:06:03;;;;;;;8.45;3.30;;;;;;;11.97;83.28;102026.09;2041913;29;20047;-71
2022/11/12 03:07:25;;;;;;;7.93;3.80;;;;;;;11.92;83.23;102020.66;2042179;29;20512;-71
2022/11/12 03:08:46;;;;;;;7.35;3.97;;;;;;;11.94;83.24;102034.69;2041788;29;20043;-71
2022/11/12 03:10:10;;;;;;;8.98;2.97;;;;;;;11.95;83.54;102024.75;2035260;29;20436;-71
2022/11/12 03:11:30;;;;;;;7.70;3.17;;;;;;;11.95;83.04;102035.53;2032680;29;20689;-72
2022/11/12 03:12:52;;;;;;;7.97;3.58;;;;;;;11.95;83.29;102028.25;2032272;29;20040;-71
2022/11/12 03:14:21;;;;;;;10.27;3.67;;;;;;;11.97;83.36;102033.38;2036177;29;20047;-71
2022/11/12 03:15:42;;;;;;;10.23;3.83;;;;;;;11.98;83.30;102024.22;2032733;29;20047;-71
2022/11/12 03:17:05;;;;;;;9.02;3.75;;;;;;;11.99;83.27;102031.25;2031733;29;20055;-71
2022/11/12 03:18:32;;;;;;;6.57;3.00;;;;;;;12.00;83.18;102035.56;2041018;29;20392;-71
2022/11/12 03:19:53;;;;;;;9.18;3.13;;;;;;;12.00;83.22;102032.88;2040391;29;20027;-71
2022/11/12 03:21:18;;;;;;;7.68;3.50;;;;;;;11.98;83.04;102035.00;2040910;29;20090;-71
2022/11/12 03:22:42;;;;;;;6.63;3.13;;;;;;;11.99;83.20;102036.63;2041267;29;20106;-71
2022/11/12 03:24:03;;;;;;;9.15;3.35;;;;;;;11.98;83.03;102022.34;2032594;29;20048;-71
2022/11/12 03:25:24;;;;;;;9.23;3.47;;;;;;;11.96;83.10;102027.16;2031251;29;20040;-72
2022/11/12 03:26:44;;;;;;;7.53;3.33;;;;;;;11.97;83.11;102030.69;2035300;29;20122;-72
2022/11/12 03:28:07;;;;;;;8.13;3.28;;;;;;;11.93;82.95;102033.06;2040663;29;20035;-71
2022/11/12 03:29:31;;;;;;;13.60;3.75;;;;;;;11.90;82.99;102032.75;2032757;29;20055;-71
2022/11/12 03:30:57;;;;;;;9.80;3.65;;;;;;;11.89;83.29;102023.06;2038088;29;20051;-72
2022/11/12 03:32:18;;;;;;;10.52;3.80;;;;;;;11.92;83.33;102025.25;2040449;29;20058;-72
2022/11/12 03:33:39;;;;;;;7.40;3.17;;;;;;;11.95;83.36;102022.03;2037333;29;20055;-72
2022/11/12 03:35:02;;;;;;;8.95;3.40;;;;;;;11.93;83.27;102030.38;2040548;29;20385;-72
2022/11/12 03:36:22;;;;;;;5.13;3.30;;;;;;;11.95;83.42;102030.94;2032324;29;20519;-71
2022/11/12 03:37:43;;;;;;;8.95;3.55;;;;;;;11.97;83.26;102034.19;2032241;29;20051;-71
2022/11/12 03:39:04;;;;;;;9.27;2.97;;;;;;;11.96;83.27;102023.66;2035054;29;20055;-71
2022/11/12 03:40:27;;;;;;;12.50;3.20;;;;;;;11.94;83.48;102033.88;2041843;29;20047;-71
2022/11/12 03:41:48;;;;;;;10.27;3.10;;;;;;;11.95;83.35;102032.81;2041517;29;20404;-72
2022/11/12 03:43:09;;;;;;;10.38;3.15;;;;;;;11.92;83.41;102031.44;2041061;29;20051;-71
2022/11/12 03:44:30;;;;;;;8.23;3.35;;;;;;;11.92;83.36;102038.72;2041954;29;20055;-71
2022/11/12 03:45:51;;;;;;;7.22;3.00;;;;;;;11.91;83.37;102031.69;2041497;29;20039;-71
2022/11/12 03:47:17;;;;;;;7.85;3.42;;;;;;;11.88;83.44;102029.47;2044311;29;20561;-72
2022/11/12 03:48:40;;;;;;;8.07;2.97;;;;;;;11.89;83.59;102026.56;2043849;29;20051;-72
2022/11/12 03:50:01;;;;;;;10.23;3.00;;;;;;;11.95;83.64;102030.94;2041450;29;20039;-72
2022/11/12 03:51:23;;;;;;;6.95;2.75;;;;;;;11.96;83.65;102031.75;2041264;29;20040;-72
2022/11/12 03:52:45;;;;;;;6.00;3.03;;;;;;;11.96;83.60;102016.38;2041897;29;20059;-71
2022/11/12 03:54:08;;;;;;;9.35;3.00;;;;;;;12.00;83.46;102022.91;2042065;29;20399;-71
2022/11/12 03:55:30;;;;;;;6.78;3.22;;;;;;;12.01;83.58;102021.00;2040819;29;20039;-71
2022/11/12 03:56:53;;;;;;;6.57;2.63;;;;;;;12.01;83.51;102021.84;2040174;29;20043;-73
2022/11/12 03:58:15;;;;;;;8.98;3.00;;;;;;;11.99;83.57;102012.38;2040585;29;20043;-72
2022/11/12 03:59:36;;;;;;;9.77;2.83;;;;;;;12.02;83.40;102018.06;2040236;29;20039;-72
2022/11/12 04:00:57;;;;;;;6.03;2.92;;;;;;;12.02;83.58;102019.97;2040211;29;20036;-71
2022/11/12 04:02:21;;;;;;;8.18;2.75;;;;;;;12.02;83.41;102019.97;2040666;29;20048;-71
2022/11/12 04:03:42;;;;;;;11.90;3.25;;;;;;;12.06;83.48;102015.69;2040157;29;20044;-72
2022/11/12 04:08:39;;;;;;;8.75;3.13;;;;;;;12.06;83.25;102015.69;2040680;29;20047;-72
2022/11/12 04:10:02;;;;;;;9.25;2.88;;;;;;;12.04;83.25;102017.81;2039540;29;20055;-72
2022/11/12 04:11:26;;;;;;;9.52;3.00;;;;;;;12.01;82.93;102011.06;2040773;29;20056;-72
2022/11/12 04:14:29;;;;;;;7.93;2.95;;;;;;;12.02;83.00;102014.56;2036560;29;20439;-72
2022/11/12 04:22:44;;;;;;;11.20;2.75;;;;;;;12.03;83.01;102006.22;2040770;29;20046;-72
2022/11/12 04:24:07;;;;;;;11.10;2.58;;;;;;;12.04;82.89;102015.94;2041386;29;20040;-72
2022/11/12 04:27:19;;;;;;;4.72;2.20;;;;;;;12.02;82.88;102006.47;2041384;29;20039;-72
2022/11/12 04:30:14;;;;;;;;;;;;;;;12.01;82.98;102002.97;2041652;29;20043;-72
2022/11/12 04:30:24;;;;;;;8.10;2.45;;;;;;;12.00;82.75;102006.72;2041408;29;20017;-72
2022/11/12 04:31:47;;;;;;;8.98;2.45;;;;;;;11.99;82.86;102001.59;2036193;29;20035;-72
2022/11/12 04:33:08;;;;;;;7.35;2.05;;;;;;;12.02;82.87;102003.78;2041360;29;20051;-72
2022/11/12 04:34:29;;;;;;;8.73;2.22;;;;;;;12.08;82.91;102007.38;2041608;29;20051;-72
2022/11/12 04:35:50;;;;;;;5.88;2.63;;;;;;;12.11;82.91;102004.16;2041194;29;20035;-71
2022/11/12 04:37:11;;;;;;;9.40;2.47;;;;;;;12.06;82.77;101994.94;2040886;29;20048;-72
2022/11/12 04:38:34;;;;;;;5.75;2.83;;;;;;;12.08;82.84;101997.38;2040805;29;20040;-71
2022/11/12 04:39:54;;;;;;;11.57;2.60;;;;;;;12.03;82.77;102006.22;2039952;29;20035;-71
2022/11/12 04:46:21;;;;;;;8.00;2.53;;;;;;;11.99;82.93;101990.81;2039997;29;20495;-71
2022/11/12 04:47:45;;;;;;;9.68;2.90;;;;;;;11.98;82.95;101991.84;2040170;29;20036;-71
2022/11/12 04:49:06;;;;;;;7.75;2.63;;;;;;;12.00;83.09;101995.13;2039948;29;20062;-71
2022/11/12 04:50:30;;;;;;;7.28;2.30;;;;;;;12.00;83.14;102000.53;2037822;29;20052;-71
2022/11/12 04:52:04;;;;;;;8.65;3.33;;;;;;;12.03;83.27;101994.63;2041353;29;20059;-71
2022/11/12 04:53:29;;;;;;;10.38;2.83;;;;;;;12.09;83.24;101992.81;2041674;29;20051;-71
2022/11/12 04:54:55;;;;;;;6.60;2.67;;;;;;;12.11;83.20;101996.06;2041857;29;20035;-71
2022/11/12 04:56:16;;;;;;;8.40;2.45;;;;;;;12.09;83.01;101998.19;2040471;29;20474;-71
2022/11/12 04:57:41;;;;;;;12.35;2.70;;;;;;;12.09;83.21;101993.63;2040960;29;20062;-71
2022/11/12 04:59:04;;;;;;;13.27;3.20;;;;;;;12.05;83.07;101989.81;2041117;29;20047;-71
2022/11/12 05:00:24;;;;;;;4.90;2.47;;;;;;;12.02;83.08;101988.44;2038397;29;20049;-71
2022/11/12 05:01:45;;;;;;;8.30;3.30;;;;;;;11.98;83.40;101990.00;2041407;29;20031;-71
2022/11/12 05:03:11;;;;;;;8.30;2.97;;;;;;;11.98;83.48;101989.16;2041301;29;20059;-71
2022/11/12 05:04:35;;;;;;;6.53;3.38;;;;;;;12.02;83.44;101988.44;2042230;29;20052;-71
2022/11/12 05:06:49;;;;;;;8.90;3.15;;;;;;;12.01;83.32;101978.72;2041802;29;20058;-71
2022/11/12 05:07:47;;;;;;;6.80;2.90;;;;;;;11.99;83.59;101994.31;2041401;29;20043;-71
2022/11/12 05:09:10;;;;;;;12.52;2.70;;;;;;;12.03;83.75;101995.44;2036471;29;20044;-71
2022/11/12 05:10:34;;;;;;;5.10;2.85;;;;;;;12.04;83.74;101991.69;2035011;29;20575;-71
2022/11/12 05:11:54;;;;;;;4.72;2.50;;;;;;;12.08;83.59;101992.00;2036600;29;20035;-71
2022/11/12 05:13:16;;;;;;;7.10;2.60;;;;;;;12.09;83.92;101985.53;2041788;29;20046;-70
2022/11/12 05:14:38;;;;;;;6.22;2.75;;;;;;;12.08;83.81;101981.22;2033554;29;20476;-70
2022/11/12 05:16:04;;;;;;;8.35;2.83;;;;;;;12.07;83.70;101984.97;2039144;29;20036;-71
2022/11/12 05:17:27;;;;;;;6.15;2.35;;;;;;;12.08;83.76;101981.22;2033591;29;20040;-71
2022/11/12 05:18:50;;;;;;;6.60;2.55;;;;;;;12.08;83.65;101985.78;2033763;29;20035;-71
2022/11/12 05:20:14;;;;;;;8.40;2.78;;;;;;;12.08;83.70;101992.00;2036592;29;20596;-71
2022/11/12 05:23:16;;;;;;;10.95;3.03;;;;;;;12.02;83.78;101993.00;2041881;29;20360;-72
2022/11/12 05:24:41;;;;;;;9.88;3.25;;;;;;;12.02;84.00;101993.00;2042041;29;20051;-72
2022/11/12 05:26:06;;;;;;;5.22;2.63;;;;;;;12.05;83.99;101993.31;2032519;29;20044;-72
2022/11/12 05:27:26;;;;;;;9.82;2.97;;;;;;;12.04;84.06;101980.06;2039274;29;20046;-72
2022/11/12 05:28:47;;;;;;;8.35;3.40;;;;;;;12.06;83.99;101983.34;2025581;29;20036;-72
2022/11/12 05:30:11;;;;;;;5.70;2.65;;;;;;;12.10;84.15;101995.22;2030889;29;20039;-71
2022/11/12 05:31:33;;;;;;;6.80;2.60;;;;;;;12.14;84.10;101990.97;2034628;29;20074;-71
2022/11/12 05:32:57;;;;;;;15.23;3.58;;;;;;;12.16;83.98;102002.31;2034422;29;20032;-71
2022/11/12 05:34:18;;;;;;;8.57;2.65;;;;;;;12.17;83.83;102006.66;2034360;29;20048;-71
2022/11/12 05:35:39;;;;;;;11.13;5.70;;;;;;;12.18;83.68;102008.28;2031287;29;20539;-71
2022/11/12 05:37:02;;;;;;;8.55;2.47;;;;;;;12.17;83.47;101989.63;2034856;29;20036;-73
2022/11/12 05:38:26;;;;;;;8.60;2.70;;;;;;;12.18;83.52;102000.19;2035096;29;20036;-71
2022/11/12 05:39:54;;;;;;;7.28;2.35;;;;;;;12.18;83.31;102000.19;2034169;29;20423;-72
2022/11/12 05:41:17;;;;;;;3.67;2.20;;;;;;;12.20;83.18;101998.06;2036536;29;20035;-70
2022/11/12 05:42:42;;;;;;;7.95;2.50;;;;;;;12.21;83.07;102002.38;2037064;29;20048;-70
2022/11/12 05:44:03;;;;;;;8.38;2.45;;;;;;;12.16;82.87;102007.69;2042722;29;20050;-70
2022/11/12 05:45:27;;;;;;;7.93;2.55;;;;;;;12.17;82.94;101995.88;2042412;29;20052;-70
2022/11/12 05:46:49;;;;;;;10.57;2.80;;;;;;;12.16;82.93;102013.09;2041788;29;20483;-71
2022/11/12 05:48:12;;;;;;;5.97;2.45;;;;;;;12.14;82.63;102007.16;2033412;29;20044;-71
2022/11/12 05:49:35;;;;;;;8.38;2.28;;;;;;;12.16;82.77;102015.78;2039000;29;20031;-71
2022/11/12 05:50:56;;;;;;;5.57;2.10;;;;;;;12.17;82.63;102012.06;2040994;29;20039;-71
2022/11/12 05:52:17;;;;;;;3.42;1.98;;;;;;;12.18;82.54;102019.06;2041059;29;20036;-70
2022/11/12 05:53:38;;;;;;;5.70;2.10;;;;;;;12.21;82.65;102006.97;2041226;29;20050;-70
2022/11/12 05:55:02;;;;;;;5.70;2.00;;;;;;;12.23;82.64;102015.59;2041347;29;20040;-70
2022/11/12 05:56:24;;;;;;;5.13;1.85;;;;;;;12.19;82.38;101999.09;2040713;29;20071;-71
2022/11/12 05:57:45;;;;;;;7.47;2.60;;;;;;;12.23;82.31;102005.66;2041681;29;20047;-72
2022/11/12 05:59:09;;;;;;;6.15;2.10;;;;;;;12.23;82.19;102010.19;2041011;29;20043;-72
2022/11/12 06:00:40;;;;;;;7.25;2.30;;;;;;;12.23;82.13;101997.56;2041514;29;20048;-72
2022/11/12 06:02:06;;;;;;;6.05;1.98;;;;;;;12.23;82.16;102013.72;2033279;29;20040;-72
2022/11/12 06:03:26;;;;;;;3.22;1.58;;;;;;;12.22;82.08;102022.88;2039122;29;20044;-72
2022/11/12 06:04:47;;;;;;;10.25;2.13;;;;;;;12.23;81.98;102016.44;2041108;29;20555;-70
2022/11/12 06:06:08;;;;;;;8.05;1.83;;;;;;;12.26;82.04;102010.53;2038258;29;20054;-71
2022/11/12 06:07:28;;;;;;;6.43;2.08;;;;;;;12.28;81.96;102015.66;2035790;29;20055;-71
2022/11/12 06:08:49;;;;;;;4.65;2.03;;;;;;;12.32;81.86;102019.47;2038420;29;20059;-71
2022/11/12 06:10:14;;;;;;;6.80;2.22;;;;;;;12.35;81.83;102015.44;2035752;29;20052;-71
2022/11/12 06:11:37;;;;;;;6.22;2.00;;;;;;;12.28;81.46;102013.75;2040019;29;20051;-72
2022/11/12 06:12:59;;;;;;;6.93;1.98;;;;;;;12.32;81.53;102022.16;2041902;29;20054;-72
2022/11/12 06:14:23;;;;;;;4.75;1.98;;;;;;;12.29;81.37;102026.19;2042188;29;20055;-71
2022/11/12 06:15:44;;;;;;;4.38;1.63;;;;;;;12.32;81.40;102024.03;2041115;29;20056;-71
2022/11/12 06:17:07;;;;;;;9.75;2.00;;;;;;;12.33;81.41;102025.69;2040756;29;20047;-71
2022/11/12 06:18:33;;;;;;;4.45;1.75;;;;;;;12.35;81.30;102020.84;2035778;29;20043;-71
2022/11/12 06:19:59;;;;;;;4.38;1.60;;;;;;;12.36;81.35;102030.56;2040884;29;20056;-71
2022/11/12 06:21:20;;;;;;;5.32;1.63;;;;;;;12.38;81.31;102023.03;2032737;29;20044;-71
2022/11/12 06:22:41;;;;;;;6.13;1.85;;;;;;;12.38;81.31;102028.44;2032913;29;20055;-71
2022/11/12 06:24:07;;;;;;;5.03;2.20;;;;;;;12.37;81.14;102030.31;2037754;29;20035;-70
2022/11/12 06:25:30;;;;;;;4.05;1.50;;;;;;;12.38;81.16;102026.53;2040266;29;20088;-70
2022/11/12 06:26:52;;;;;;;6.47;2.25;;;;;;;12.38;80.98;102034.63;2039480;29;20055;-70
2022/11/12 06:28:17;;;;;;;3.97;1.70;;;;;;;12.40;81.39;102026.28;2040246;29;20043;-71
2022/11/12 06:29:40;;;;;;;6.68;1.90;;;;;;;12.45;81.13;102029.03;2039772;29;20057;-71
2022/11/12 06:31:01;;;;;;;6.10;1.90;;;;;;;12.41;81.16;102023.34;2031791;29;20044;-71
2022/11/12 06:32:23;;;;;;;2.97;1.52;;;;;;;12.40;80.87;102027.09;2031594;29;20393;-72
2022/11/12 06:33:44;;;;;;;5.25;1.70;;;;;;;12.41;81.14;102033.31;2039868;29;20141;-70
2022/11/12 06:35:10;;;;;;;5.00;1.80;;;;;;;12.41;81.06;102041.41;2039568;29;20051;-70
2022/11/12 06:36:34;;;;;;;3.60;1.65;;;;;;;12.38;80.84;102040.03;2027091;29;20043;-71
2022/11/12 06:37:57;;;;;;;3.90;1.67;;;;;;;12.41;81.13;102044.09;2037243;29;20059;-71
2022/11/12 06:39:22;;;;;;;4.85;1.90;;;;;;;12.43;80.86;102048.19;2039564;29;20040;-71
2022/11/12 06:40:43;;;;;;;5.75;1.73;;;;;;;12.42;81.04;102056.50;2034866;29;20776;-71
2022/11/12 06:42:04;;;;;;;4.55;1.50;;;;;;;12.44;81.18;102040.91;2038517;29;20428;-70
2022/11/12 06:43:27;;;;;;;5.88;1.92;;;;;;;12.49;81.21;102049.06;2040125;29;20052;-70
2022/11/12 06:44:52;;;;;;;6.20;2.10;;;;;;;12.49;80.85;102043.66;2040170;29;20044;-71
2022/11/12 06:46:14;;;;;;;5.10;1.63;;;;;;;12.49;80.76;102046.34;2040496;29;20672;-71
2022/11/12 06:47:35;;;;;;;4.82;1.60;;;;;;;12.50;80.94;102040.69;2039618;29;20043;-71
2022/11/12 06:49:01;;;;;;;4.57;1.60;;;;;;;12.52;80.71;102051.25;2039940;29;20400;-72